Time;durP1;ratioP1;P1;durP2;ratioP2;P2;SDS_P1;SDS_P2;PMS_P1;PMS_P2;Temp;Humidity;BMP_temperature;BMP_pressure;BME280_temperature;BME280_humidity;BME280_pressure;Samples;Min_cycle;Max_cycle;Signal;HPM_P1;HPM_P2
2023/04/29 00:00:28;;;;;;;;;;;;;;;;;;7367349;19;845;-65
2023/04/29 00:02:56;;;;;;;;;;;;;;;;;;7365524;19;1842;-61
2023/04/29 00:05:25;;;;;;;;;;;;;;;;;;7368036;19;944;-64
2023/04/29 00:07:53;;;;;;;;;;;;;;;;;;7367021;19;851;-63
2023/04/29 00:10:21;;;;;;;;;;;;;;;;;;7367233;19;1042;-63
2023/04/29 00:12:50;;;;;;;;;;;;;;;;;;7370101;19;1270;-64
2023/04/29 00:15:18;;;;;;;;;;;;;;;;;;7367533;19;808;-63
2023/04/29 00:17:47;;;;;;;;;;;;;;;;;;7366448;19;856;-64
2023/04/29 00:20:15;;;;;;;;;;;;;;;;;;7367083;19;840;-65
2023/04/29 00:22:43;;;;;;;;;;;;;;;;;;7365514;19;1884;-65
2023/04/29 00:25:12;;;;;;;;;;;;;;;;;;7367523;19;771;-63
2023/04/29 00:27:40;;;;;;;;;;;;;;;;;;7366584;19;873;-61
2023/04/29 00:30:08;;;;;;;;;;;;;;;;;;7366939;19;756;-64
2023/04/29 00:32:37;;;;;;;;;;;;;;;;;;7362381;19;1282;-63
2023/04/29 00:35:05;;;;;;;;;;;;;;;;;;7365076;19;795;-63
2023/04/29 00:37:33;;;;;;;;;;;;;;;;;;7366502;19;742;-63
2023/04/29 00:40:01;;;;;;;;;;;;;;;;;;7365037;19;856;-64
2023/04/29 00:42:30;;;;;;;;;;;;;;;;;;7364723;19;1859;-64
2023/04/29 00:44:58;;;;;;;;;;;;;;;;;;7365066;19;870;-63
2023/04/29 00:47:26;;;;;;;;;;;;;;;;;;7366862;19;919;-63
2023/04/29 00:49:55;;;;;;;;;;;;;;;;;;7366310;19;901;-64
2023/04/29 00:52:23;;;;;;;;;;;;;;;;;;7365459;19;1373;-63
2023/04/29 00:54:51;;;;;;;;;;;;;;;;;;7364920;19;925;-64
2023/04/29 00:57:19;;;;;;;;;;;;;;;;;;7366589;19;766;-64
2023/04/29 00:59:47;;;;;;;;;;;;;;;;;;7364559;19;811;-63
2023/04/29 01:02:16;;;;;;;;;;;;;;;;;;7363726;19;1844;-64
2023/04/29 01:04:44;;;;;;;;;;;;;;;;;;7365993;19;784;-64
2023/04/29 01:07:12;;;;;;;;;;;;;;;;;;7364854;19;861;-63
2023/04/29 01:09:40;;;;;;;;;;;;;;;;;;7363430;19;836;-63
2023/04/29 01:12:09;;;;;;;;;;;;;;;;;;7363081;19;1413;-64
2023/04/29 01:14:37;;;;;;;;;;;;;;;;;;7363855;19;831;-64
2023/04/29 01:17:05;;;;;;;;;;;;;;;;;;7366531;19;1461;-63
2023/04/29 01:19:33;;;;;;;;;;;;;;;;;;7363204;19;803;-63
2023/04/29 01:22:01;;;;;;;;;;;;;;;;;;7362777;19;1854;-64
2023/04/29 01:24:29;;;;;;;;;;;;;;;;;;7364395;19;1214;-63
2023/04/29 01:26:57;;;;;;;;;;;;;;;;;;7364375;19;870;-63
2023/04/29 01:29:43;;;;;;;;;;;;;;;;;;7363017;19;971;-63
2023/04/29 01:32:12;;;;;;;;;;;;;;;;;;7363346;19;1365;-63
2023/04/29 01:34:40;;;;;;;;;;;;;;;;;;7363453;19;865;-63
2023/04/29 01:37:09;;;;;;;;;;;;;;;;;;7363643;19;935;-64
2023/04/29 01:39:42;;;;;;;;;;;;;;;;;;7363143;19;820;-64
2023/04/29 01:42:13;;;;;;;;;;;;;;;;;;7362512;19;1850;-64
2023/04/29 01:44:41;;;;;;;;;;;;;;;;;;7366710;19;841;-64
2023/04/29 01:47:09;;;;;;;;;;;;;;;;;;7369589;19;860;-64
2023/04/29 01:49:42;;;;;;;;;;;;;;;;;;7368152;19;984;-62
2023/04/29 01:52:11;;;;;;;;;;;;;;;;;;7369298;19;1294;-64
2023/04/29 01:54:40;;;;;;;;;;;;;;;;;;7369722;19;867;-64
2023/04/29 01:57:09;;;;;;;;;;;;;;;;;;7370061;19;827;-64
2023/04/29 01:59:51;;;;;;;;;;;;;;;;;;7369411;19;839;-64
2023/04/29 02:02:39;;;;;;;;;;;;;;;;;;7370968;19;1858;-64
2023/04/29 02:05:18;;;;;;;;;;;;;;;;;;7369853;19;777;-64
2023/04/29 02:07:54;;;;;;;;;;;;;;;;;;7368249;19;746;-64
2023/04/29 02:10:22;;;;;;;;;;;;;;;;;;7368049;19;788;-65
2023/04/29 02:12:54;;;;;;;;;;;;;;;;;;7367306;19;1305;-64
2023/04/29 02:15:23;;;;;;;;;;;;;;;;;;7369599;19;846;-65
2023/04/29 02:17:51;;;;;;;;;;;;;;;;;;7369035;19;899;-64
2023/04/29 02:20:21;;;;;;;;;;;;;;;;;;7368966;19;714;-64
2023/04/29 02:22:50;;;;;;;;;;;;;;;;;;7368200;19;1845;-63
2023/04/29 02:25:18;;;;;;;;;;;;;;;;;;7368907;19;935;-64
2023/04/29 02:27:46;;;;;;;;;;;;;;;;;;7369106;19;836;-64
2023/04/29 02:30:14;;;;;;;;;;;;;;;;;;7369043;19;790;-65
2023/04/29 02:32:42;;;;;;;;;;;;;;;;;;7367132;19;1239;-64
2023/04/29 02:35:11;;;;;;;;;;;;;;;;;;7367707;19;1143;-64
2023/04/29 02:37:39;;;;;;;;;;;;;;;;;;7369955;19;827;-65
2023/04/29 02:40:07;;;;;;;;;;;;;;;;;;7368658;19;859;-64
2023/04/29 02:42:36;;;;;;;;;;;;;;;;;;7367730;19;1849;-64
2023/04/29 02:45:05;;;;;;;;;;;;;;;;;;7368225;19;829;-64
2023/04/29 02:47:33;;;;;;;;;;;;;;;;;;7367798;19;874;-64
2023/04/29 02:50:01;;;;;;;;;;;;;;;;;;7367693;19;862;-64
2023/04/29 02:52:30;;;;;;;;;;;;;;;;;;7367295;19;1283;-64
2023/04/29 02:54:59;;;;;;;;;;;;;;;;;;7368267;19;849;-65
2023/04/29 02:57:28;;;;;;;;;;;;;;;;;;7366754;19;814;-65
2023/04/29 02:59:56;;;;;;;;;;;;;;;;;;7367745;19;794;-65
2023/04/29 03:02:24;;;;;;;;;;;;;;;;;;7367331;19;1864;-65
2023/04/29 03:04:56;;;;;;;;;;;;;;;;;;7368145;19;775;-65
2023/04/29 03:07:24;;;;;;;;;;;;;;;;;;7367789;19;865;-65
2023/04/29 03:09:54;;;;;;;;;;;;;;;;;;7368822;19;865;-65
2023/04/29 03:12:22;;;;;;;;;;;;;;;;;;7367175;19;1334;-65
2023/04/29 03:14:50;;;;;;;;;;;;;;;;;;7368321;19;806;-65
2023/04/29 03:17:19;;;;;;;;;;;;;;;;;;7367657;19;812;-65
2023/04/29 03:19:47;;;;;;;;;;;;;;;;;;7367269;19;717;-65
2023/04/29 03:22:15;;;;;;;;;;;;;;;;;;7367062;19;1838;-64
2023/04/29 03:24:44;;;;;;;;;;;;;;;;;;7366732;19;804;-65
2023/04/29 03:27:13;;;;;;;;;;;;;;;;;;7368553;19;871;-65
2023/04/29 03:29:41;;;;;;;;;;;;;;;;;;7368235;19;865;-64
2023/04/29 03:32:09;;;;;;;;;;;;;;;;;;7366110;19;1271;-65
2023/04/29 03:34:37;;;;;;;;;;;;;;;;;;7367784;19;754;-64
2023/04/29 03:37:23;;;;;;;;;;;;;;;;;;7366455;19;800;-65
2023/04/29 03:39:58;;;;;;;;;;;;;;;;;;7366748;19;774;-65
2023/04/29 03:42:26;;;;;;;;;;;;;;;;;;7367138;19;1870;-65
2023/04/29 03:44:54;;;;;;;;;;;;;;;;;;7367726;19;861;-65
2023/04/29 03:47:22;;;;;;;;;;;;;;;;;;7366729;19;848;-65
2023/04/29 03:49:50;;;;;;;;;;;;;;;;;;7366444;19;893;-65
2023/04/29 03:52:19;;;;;;;;;;;;;;;;;;7366261;19;1325;-65
2023/04/29 03:54:49;;;;;;;;;;;;;;;;;;7366700;19;741;-65
2023/04/29 03:57:18;;;;;;;;;;;;;;;;;;7366511;19;790;-65
2023/04/29 03:59:49;;;;;;;;;;;;;;;;;;7365875;19;814;-65
2023/04/29 04:02:17;;;;;;;;;;;;;;;;;;7366146;19;1416;-65
2023/04/29 04:04:45;;;;;;;;;;;;;;;;;;7365828;19;852;-65
2023/04/29 04:07:13;;;;;;;;;;;;;;;;;;7366550;19;820;-64
2023/04/29 04:10:01;;;;;;;;;;;;;;;;;;7366775;19;1077;-65
2023/04/29 04:12:29;;;;;;;;;;;;;;;;;;7364670;19;1346;-65
2023/04/29 04:14:58;;;;;;;;;;;;;;;;;;7366307;19;821;-65
2023/04/29 04:17:26;;;;;;;;;;;;;;;;;;7366139;19;812;-65
2023/04/29 04:19:54;;;;;;;;;;;;;;;;;;7365518;19;831;-66
2023/04/29 04:22:22;;;;;;;;;;;;;;;;;;7365702;19;1322;-65
2023/04/29 04:25:06;;;;;;;;;;;;;;;;;;7366957;19;798;-65
2023/04/29 04:27:35;;;;;;;;;;;;;;;;;;7365714;19;861;-62
2023/04/29 04:30:06;;;;;;;;;;;;;;;;;;7365734;19;816;-64
2023/04/29 04:32:34;;;;;;;;;;;;;;;;;;7365054;19;1318;-64
2023/04/29 04:35:02;;;;;;;;;;;;;;;;;;7366359;19;842;-63
2023/04/29 04:37:30;;;;;;;;;;;;;;;;;;7366638;19;811;-64
2023/04/29 04:40:01;;;;;;;;;;;;;;;;;;7365389;19;803;-65
2023/04/29 04:42:30;;;;;;;;;;;;;;;;;;7364190;19;1436;-65
2023/04/29 04:44:59;;;;;;;;;;;;;;;;;;7365912;19;847;-66
2023/04/29 04:47:36;;;;;;;;;;;;;;;;;;7365112;19;727;-66
2023/04/29 04:50:12;;;;;;;;;;;;;;;;;;7366091;19;750;-65
2023/04/29 04:52:40;;;;;;;;;;;;;;;;;;7363816;19;1294;-65
2023/04/29 04:55:21;;;;;;;;;;;;;;;;;;7365566;19;757;-65
2023/04/29 04:57:51;;;;;;;;;;;;;;;;;;7364842;19;799;-65
2023/04/29 05:00:20;;;;;;;;;;;;;;;;;;7365165;19;843;-65
2023/04/29 05:02:48;;;;;;;;;;;;;;;;;;7362879;19;1838;-65
2023/04/29 05:05:16;;;;;;;;;;;;;;;;;;7364667;19;872;-65
2023/04/29 05:07:44;;;;;;;;;;;;;;;;;;7364454;19;796;-65
2023/04/29 05:10:13;;;;;;;;;;;;;;;;;;7364576;19;866;-65
2023/04/29 05:12:48;;;;;;;;;;;;;;;;;;7363239;19;1329;-65
2023/04/29 05:15:17;;;;;;;;;;;;;;;;;;7364002;19;876;-65
2023/04/29 05:17:46;;;;;;;;;;;;;;;;;;7364156;19;823;-65
2023/04/29 05:20:14;;;;;;;;;;;;;;;;;;7364611;19;798;-65
2023/04/29 05:22:42;;;;;;;;;;;;;;;;;;7363694;19;1325;-65
2023/04/29 05:25:11;;;;;;;;;;;;;;;;;;7365683;19;783;-65
2023/04/29 05:27:39;;;;;;;;;;;;;;;;;;7363797;19;870;-65
2023/04/29 05:30:11;;;;;;;;;;;;;;;;;;7364416;19;837;-65
2023/04/29 05:32:39;;;;;;;;;;;;;;;;;;7366660;19;1332;-65
2023/04/29 05:35:09;;;;;;;;;;;;;;;;;;7363540;19;728;-65
2023/04/29 05:37:37;;;;;;;;;;;;;;;;;;7364072;19;759;-66
2023/04/29 05:40:16;;;;;;;;;;;;;;;;;;7363639;19;744;-65
2023/04/29 05:42:44;;;;;;;;;;;;;;;;;;7362268;19;1318;-65
2023/04/29 05:45:13;;;;;;;;;;;;;;;;;;7361042;19;1858;-65
2023/04/29 05:47:41;;;;;;;;;;;;;;;;;;7362985;19;818;-66
2023/04/29 05:50:10;;;;;;;;;;;;;;;;;;7363378;19;835;-65
2023/04/29 05:52:38;;;;;;;;;;;;;;;;;;7363621;19;1285;-65
2023/04/29 05:55:06;;;;;;;;;;;;;;;;;;7363135;19;802;-65
2023/04/29 05:57:34;;;;;;;;;;;;;;;;;;7363103;19;808;-65
2023/04/29 06:00:03;;;;;;;;;;;;;;;;;;7362703;19;795;-65
2023/04/29 06:02:42;;;;;;;;;;;;;;;;;;7363117;19;1314;-65
2023/04/29 06:05:11;;;;;;;;;;;;;;;;;;7360395;19;1854;-65
2023/04/29 06:07:58;;;;;;;;;;;;;;;;;;7364217;19;754;-65
2023/04/29 06:10:43;;;;;;;;;;;;;;;;;;7362628;19;765;-65
2023/04/29 06:13:11;;;;;;;;;;;;;;;;;;7360912;19;1349;-65
2023/04/29 06:15:40;;;;;;;;;;;;;;;;;;7364294;19;844;-65
2023/04/29 06:18:08;;;;;;;;;;;;;;;;;;7363098;19;838;-65
2023/04/29 06:20:36;;;;;;;;;;;;;;;;;;7362254;19;796;-65
2023/04/29 06:23:04;;;;;;;;;;;;;;;;;;7360303;19;1856;-65
2023/04/29 06:25:33;;;;;;;;;;;;;;;;;;7362377;19;869;-65
2023/04/29 06:28:04;;;;;;;;;;;;;;;;;;7361439;19;788;-65
2023/04/29 06:30:32;;;;;;;;;;;;;;;;;;7361946;19;760;-65
2023/04/29 06:33:00;;;;;;;;;;;;;;;;;;7368135;19;1298;-65
2023/04/29 06:35:28;;;;;;;;;;;;;;;;;;7368442;19;784;-65
2023/04/29 06:38:14;;;;;;;;;;;;;;;;;;7367712;19;792;-65
2023/04/29 06:40:56;;;;;;;;;;;;;;;;;;7368281;19;812;-65
2023/04/29 06:43:27;;;;;;;;;;;;;;;;;;7368849;19;1853;-65
2023/04/29 06:46:13;;;;;;;;;;;;;;;;;;7369973;19;773;-64
2023/04/29 06:48:58;;;;;;;;;;;;;;;;;;7367607;19;733;-65
2023/04/29 06:51:26;;;;;;;;;;;;;;;;;;7368427;19;892;-65
2023/04/29 06:53:55;;;;;;;;;;;;;;;;;;7367050;19;1341;-65
2023/04/29 06:56:23;;;;;;;;;;;;;;;;;;7368037;19;820;-64
2023/04/29 06:58:51;;;;;;;;;;;;;;;;;;7368661;19;767;-65
2023/04/29 07:01:19;;;;;;;;;;;;;;;;;;7368296;19;803;-65
2023/04/29 07:03:47;;;;;;;;;;;;;;;;;;7365738;19;1849;-65
2023/04/29 07:06:15;;;;;;;;;;;;;;;;;;7369401;19;853;-65
2023/04/29 07:08:44;;;;;;;;;;;;;;;;;;7367549;19;866;-65
2023/04/29 07:11:12;;;;;;;;;;;;;;;;;;7368718;19;819;-65
2023/04/29 07:13:40;;;;;;;;;;;;;;;;;;7366861;19;1282;-65
2023/04/29 07:16:08;;;;;;;;;;;;;;;;;;7368053;19;856;-65
2023/04/29 07:18:36;;;;;;;;;;;;;;;;;;7366963;19;890;-66
2023/04/29 07:21:04;;;;;;;;;;;;;;;;;;7367837;19;881;-66
2023/04/29 07:23:32;;;;;;;;;;;;;;;;;;7366479;19;1850;-66
2023/04/29 07:26:00;;;;;;;;;;;;;;;;;;7367639;19;848;-66
2023/04/29 07:28:29;;;;;;;;;;;;;;;;;;7368462;19;837;-66
2023/04/29 07:30:57;;;;;;;;;;;;;;;;;;7367381;19;802;-65
2023/04/29 07:33:25;;;;;;;;;;;;;;;;;;7366773;19;1321;-65
2023/04/29 07:35:53;;;;;;;;;;;;;;;;;;7368178;19;802;-65
2023/04/29 07:38:22;;;;;;;;;;;;;;;;;;7366263;19;854;-65
2023/04/29 07:40:50;;;;;;;;;;;;;;;;;;7366794;19;882;-65
2023/04/29 07:43:18;;;;;;;;;;;;;;;;;;7364090;19;1355;-66
2023/04/29 07:45:46;;;;;;;;;;;;;;;;;;7363867;19;1842;-65
2023/04/29 07:48:14;;;;;;;;;;;;;;;;;;7366477;19;803;-65
2023/04/29 07:50:43;;;;;;;;;;;;;;;;;;7366536;19;823;-66
2023/04/29 07:53:11;;;;;;;;;;;;;;;;;;7367209;19;1280;-66
2023/04/29 07:55:39;;;;;;;;;;;;;;;;;;7367296;19;854;-66
2023/04/29 07:58:07;;;;;;;;;;;;;;;;;;7366428;19;944;-66
2023/04/29 08:00:35;;;;;;;;;;;;;;;;;;7367262;19;820;-66
2023/04/29 08:03:04;;;;;;;;;;;;;;;;;;7364874;19;1353;-65
2023/04/29 08:05:32;;;;;;;;;;;;;;;;;;7364246;19;1858;-65
2023/04/29 08:08:00;;;;;;;;;;;;;;;;;;7365773;19;849;-65
2023/04/29 08:10:28;;;;;;;;;;;;;;;;;;7367078;19;786;-65
2023/04/29 08:12:56;;;;;;;;;;;;;;;;;;7365156;19;1278;-65
2023/04/29 08:15:25;;;;;;;;;;;;;;;;;;7366079;19;888;-64
2023/04/29 08:17:54;;;;;;;;;;;;;;;;;;7365278;19;878;-65
2023/04/29 08:20:22;;;;;;;;;;;;;;;;;;7366484;19;804;-65
2023/04/29 08:22:50;;;;;;;;;;;;;;;;;;7366251;19;1252;-66
2023/04/29 08:25:19;;;;;;;;;;;;;;;;;;7365787;19;1866;-65
2023/04/29 08:27:47;;;;;;;;;;;;;;;;;;7367422;19;798;-65
2023/04/29 08:30:15;;;;;;;;;;;;;;;;;;7367928;19;913;-64
2023/04/29 08:32:43;;;;;;;;;;;;;;;;;;7367056;19;1672;-64
2023/04/29 08:35:11;;;;;;;;;;;;;;;;;;7368823;19;818;-65
2023/04/29 08:37:40;;;;;;;;;;;;;;;;;;7368952;19;818;-65
2023/04/29 08:40:08;;;;;;;;;;;;;;;;;;7370240;19;845;-65
2023/04/29 08:42:36;;;;;;;;;;;;;;;;;;7367205;19;1282;-65
2023/04/29 08:45:05;;;;;;;;;;;;;;;;;;7366564;19;1837;-65
2023/04/29 08:47:33;;;;;;;;;;;;;;;;;;7368738;19;831;-65
2023/04/29 08:50:01;;;;;;;;;;;;;;;;;;7367702;19;812;-65
2023/04/29 08:52:29;;;;;;;;;;;;;;;;;;7367322;19;1337;-65
2023/04/29 08:54:57;;;;;;;;;;;;;;;;;;7366146;19;818;-65
2023/04/29 08:57:25;;;;;;;;;;;;;;;;;;7368078;19;841;-65
2023/04/29 08:59:53;;;;;;;;;;;;;;;;;;7367173;19;806;-66
2023/04/29 09:02:22;;;;;;;;;;;;;;;;;;7365253;19;1357;-65
2023/04/29 09:04:50;;;;;;;;;;;;;;;;;;7370645;19;1842;-65
2023/04/29 09:07:18;;;;;;;;;;;;;;;;;;7367733;19;796;-65
2023/04/29 09:09:46;;;;;;;;;;;;;;;;;;7366010;19;895;-65
2023/04/29 09:12:15;;;;;;;;;;;;;;;;;;7365588;19;1341;-64
2023/04/29 09:14:45;;;;;;;;;;;;;;;;;;7365685;19;1625;-65
2023/04/29 09:17:15;;;;;;;;;;;;;;;;;;7366746;19;1050;-65
2023/04/29 09:19:43;;;;;;;;;;;;;;;;;;7364553;19;854;-65
2023/04/29 09:22:11;;;;;;;;;;;;;;;;;;7365448;19;1290;-64
2023/04/29 09:24:39;;;;;;;;;;;;;;;;;;7363246;19;1834;-65
2023/04/29 09:27:08;;;;;;;;;;;;;;;;;;7366120;19;775;-65
2023/04/29 09:29:37;;;;;;;;;;;;;;;;;;7368272;19;845;-65
2023/04/29 09:32:05;;;;;;;;;;;;;;;;;;7364810;19;1265;-64
2023/04/29 09:34:34;;;;;;;;;;;;;;;;;;7365054;19;817;-64
2023/04/29 09:37:02;;;;;;;;;;;;;;;;;;7365476;19;821;-65
2023/04/29 09:39:30;;;;;;;;;;;;;;;;;;7364580;19;834;-65
2023/04/29 09:42:01;;;;;;;;;;;;;;;;;;7364946;19;1267;-64
2023/04/29 09:44:29;;;;;;;;;;;;;;;;;;7364694;19;1842;-65
2023/04/29 09:46:58;;;;;;;;;;;;;;;;;;7364466;19;810;-65
2023/04/29 09:49:26;;;;;;;;;;;;;;;;;;7363753;19;826;-65
2023/04/29 09:51:54;;;;;;;;;;;;;;;;;;7363869;19;1292;-66
2023/04/29 09:54:23;;;;;;;;;;;;;;;;;;7364309;19;790;-65
2023/04/29 09:56:51;;;;;;;;;;;;;;;;;;7364591;19;817;-65
2023/04/29 09:59:19;;;;;;;;;;;;;;;;;;7363467;19;802;-65
2023/04/29 10:01:47;;;;;;;;;;;;;;;;;;7364185;19;1353;-65
2023/04/29 10:04:15;;;;;;;;;;;;;;;;;;7362686;19;1830;-66
2023/04/29 10:06:44;;;;;;;;;;;;;;;;;;7370923;19;839;-66
2023/04/29 10:09:12;;;;;;;;;;;;;;;;;;7370993;19;759;-65
2023/04/29 10:11:40;;;;;;;;;;;;;;;;;;7373032;19;786;-64
2023/04/29 10:14:08;;;;;;;;;;;;;;;;;;7371509;19;763;-65
2023/04/29 10:16:36;;;;;;;;;;;;;;;;;;7372026;19;811;-65
2023/04/29 10:19:05;;;;;;;;;;;;;;;;;;7370254;19;822;-66
2023/04/29 10:21:33;;;;;;;;;;;;;;;;;;7371171;19;794;-65
2023/04/29 10:24:01;;;;;;;;;;;;;;;;;;7368951;19;1332;-66
2023/04/29 10:26:30;;;;;;;;;;;;;;;;;;7368515;19;1849;-66
2023/04/29 10:28:58;;;;;;;;;;;;;;;;;;7370073;19;877;-66
2023/04/29 10:31:27;;;;;;;;;;;;;;;;;;7370574;19;853;-66
2023/04/29 10:33:55;;;;;;;;;;;;;;;;;;7367904;19;1278;-67
2023/04/29 10:36:23;;;;;;;;;;;;;;;;;;7369836;19;865;-66
2023/04/29 10:38:52;;;;;;;;;;;;;;;;;;7369081;19;819;-66
2023/04/29 10:41:23;;;;;;;;;;;;;;;;;;7370077;19;1016;-65
2023/04/29 10:43:51;;;;;;;;;;;;;;;;;;7367616;19;1412;-65
2023/04/29 10:46:19;;;;;;;;;;;;;;;;;;7367669;19;1857;-65
2023/04/29 10:48:47;;;;;;;;;;;;;;;;;;7368430;19;806;-65
2023/04/29 10:51:16;;;;;;;;;;;;;;;;;;7369971;19;775;-65
2023/04/29 10:53:44;;;;;;;;;;;;;;;;;;7367741;19;1865;-66
2023/04/29 10:56:12;;;;;;;;;;;;;;;;;;7369439;19;814;-65
2023/04/29 10:58:40;;;;;;;;;;;;;;;;;;7369422;19;816;-66
2023/04/29 11:01:09;;;;;;;;;;;;;;;;;;7370345;19;1414;-66
2023/04/29 11:03:38;;;;;;;;;;;;;;;;;;7368394;19;1308;-66
2023/04/29 11:06:06;;;;;;;;;;;;;;;;;;7368041;19;1853;-66
2023/04/29 11:08:34;;;;;;;;;;;;;;;;;;7369645;19;798;-66
2023/04/29 11:11:02;;;;;;;;;;;;;;;;;;7369647;19;798;-66
2023/04/29 11:13:32;;;;;;;;;;;;;;;;;;7367911;19;1294;-66
2023/04/29 11:16:00;;;;;;;;;;;;;;;;;;7368637;19;980;-65
2023/04/29 11:18:29;;;;;;;;;;;;;;;;;;7367313;19;795;-65
2023/04/29 11:20:57;;;;;;;;;;;;;;;;;;7368459;19;828;-65
2023/04/29 11:23:25;;;;;;;;;;;;;;;;;;7367083;19;1352;-66
2023/04/29 11:25:53;;;;;;;;;;;;;;;;;;7366778;19;1853;-66
2023/04/29 11:28:21;;;;;;;;;;;;;;;;;;7367593;19;849;-66
2023/04/29 11:30:50;;;;;;;;;;;;;;;;;;7367580;19;834;-66
2023/04/29 11:33:18;;;;;;;;;;;;;;;;;;7369675;19;1775;-65
2023/04/29 11:35:46;;;;;;;;;;;;;;;;;;7372149;19;1903;-65
2023/04/29 11:38:14;;;;;;;;;;;;;;;;;;7367614;19;798;-65
2023/04/29 11:40:42;;;;;;;;;;;;;;;;;;7368912;19;820;-65
2023/04/29 11:43:10;;;;;;;;;;;;;;;;;;7368369;19;1294;-65
2023/04/29 11:45:38;;;;;;;;;;;;;;;;;;7367203;19;1855;-64
2023/04/29 11:48:06;;;;;;;;;;;;;;;;;;7368070;19;724;-65
2023/04/29 11:50:35;;;;;;;;;;;;;;;;;;7370555;19;865;-66
2023/04/29 11:53:03;;;;;;;;;;;;;;;;;;7368922;19;1405;-65
2023/04/29 11:55:31;;;;;;;;;;;;;;;;;;7367584;19;803;-65
2023/04/29 11:57:59;;;;;;;;;;;;;;;;;;7367404;19;851;-64
2023/04/29 12:00:27;;;;;;;;;;;;;;;;;;7367990;19;874;-64
2023/04/29 12:02:56;;;;;;;;;;;;;;;;;;7366639;19;1285;-65
2023/04/29 12:05:24;;;;;;;;;;;;;;;;;;7367680;19;1851;-64
2023/04/29 12:07:52;;;;;;;;;;;;;;;;;;7367047;19;790;-65
2023/04/29 12:10:20;;;;;;;;;;;;;;;;;;7368612;19;897;-66
2023/04/29 12:12:48;;;;;;;;;;;;;;;;;;7366821;19;1331;-65
2023/04/29 12:15:16;;;;;;;;;;;;;;;;;;7365842;19;819;-65
2023/04/29 12:17:45;;;;;;;;;;;;;;;;;;7366879;19;855;-65
2023/04/29 12:20:13;;;;;;;;;;;;;;;;;;7367463;19;820;-64
2023/04/29 12:22:42;;;;;;;;;;;;;;;;;;7366366;19;1390;-65
2023/04/29 12:25:10;;;;;;;;;;;;;;;;;;7367467;19;1862;-65
2023/04/29 12:27:39;;;;;;;;;;;;;;;;;;7364668;19;802;-65
2023/04/29 12:30:08;;;;;;;;;;;;;;;;;;7365181;19;922;-65
2023/04/29 12:32:36;;;;;;;;;;;;;;;;;;7366438;19;1329;-65
2023/04/29 12:35:04;;;;;;;;;;;;;;;;;;7367288;19;801;-65
2023/04/29 12:37:32;;;;;;;;;;;;;;;;;;7366854;19;811;-65
2023/04/29 12:40:00;;;;;;;;;;;;;;;;;;7366986;19;814;-65
2023/04/29 12:42:29;;;;;;;;;;;;;;;;;;7365584;19;1321;-65
2023/04/29 12:44:57;;;;;;;;;;;;;;;;;;7366498;19;1837;-66
2023/04/29 12:47:25;;;;;;;;;;;;;;;;;;7366835;19;814;-65
2023/04/29 12:49:53;;;;;;;;;;;;;;;;;;7366280;19;920;-65
2023/04/29 12:52:21;;;;;;;;;;;;;;;;;;7365445;19;1302;-65
2023/04/29 12:54:49;;;;;;;;;;;;;;;;;;7365609;19;849;-65
2023/04/29 12:57:17;;;;;;;;;;;;;;;;;;7365124;19;803;-65
2023/04/29 12:59:46;;;;;;;;;;;;;;;;;;7364098;19;873;-65
2023/04/29 13:02:14;;;;;;;;;;;;;;;;;;7365628;19;1275;-65
2023/04/29 13:04:42;;;;;;;;;;;;;;;;;;7366371;19;770;-65
2023/04/29 13:07:11;;;;;;;;;;;;;;;;;;7363859;19;1830;-65
2023/04/29 13:09:40;;;;;;;;;;;;;;;;;;7365412;19;852;-65
2023/04/29 13:12:08;;;;;;;;;;;;;;;;;;7366441;19;1408;-65
2023/04/29 13:14:36;;;;;;;;;;;;;;;;;;7365747;19;846;-64
2023/04/29 13:17:05;;;;;;;;;;;;;;;;;;7366747;19;829;-66
2023/04/29 13:19:33;;;;;;;;;;;;;;;;;;7365820;19;794;-65
2023/04/29 13:22:02;;;;;;;;;;;;;;;;;;7365782;19;1274;-65
2023/04/29 13:24:31;;;;;;;;;;;;;;;;;;7365576;19;826;-66
2023/04/29 13:27:01;;;;;;;;;;;;;;;;;;7363143;19;1846;-64
2023/04/29 13:29:30;;;;;;;;;;;;;;;;;;7365064;19;941;-67
2023/04/29 13:31:58;;;;;;;;;;;;;;;;;;7365363;19;1281;-65
2023/04/29 13:34:26;;;;;;;;;;;;;;;;;;7365352;19;861;-65
2023/04/29 13:36:54;;;;;;;;;;;;;;;;;;7366112;19;857;-66
2023/04/29 13:39:22;;;;;;;;;;;;;;;;;;7364665;19;812;-66
2023/04/29 13:41:50;;;;;;;;;;;;;;;;;;7372391;19;1332;-66
2023/04/29 13:44:18;;;;;;;;;;;;;;;;;;7372009;19;857;-66
2023/04/29 13:46:47;;;;;;;;;;;;;;;;;;7371350;19;1846;-64
2023/04/29 13:49:15;;;;;;;;;;;;;;;;;;7371912;19;815;-65
2023/04/29 13:51:43;;;;;;;;;;;;;;;;;;7375101;19;874;-64
2023/04/29 13:54:11;;;;;;;;;;;;;;;;;;7374740;19;1595;-65
2023/04/29 13:56:40;;;;;;;;;;;;;;;;;;7371673;19;929;-65
2023/04/29 13:59:08;;;;;;;;;;;;;;;;;;7370678;19;794;-65
2023/04/29 14:01:36;;;;;;;;;;;;;;;;;;7371922;19;866;-65
2023/04/29 14:04:04;;;;;;;;;;;;;;;;;;7369498;19;1283;-65
2023/04/29 14:06:33;;;;;;;;;;;;;;;;;;7370199;19;1857;-65
2023/04/29 14:09:02;;;;;;;;;;;;;;;;;;7370783;19;843;-69
2023/04/29 14:11:35;;;;;;;;;;;;;;;;;;7371303;19;814;-65
2023/04/29 14:14:03;;;;;;;;;;;;;;;;;;7368186;19;1410;-65
2023/04/29 14:16:31;;;;;;;;;;;;;;;;;;7370836;19;846;-65
2023/04/29 14:19:00;;;;;;;;;;;;;;;;;;7370272;19;829;-64
2023/04/29 14:21:28;;;;;;;;;;;;;;;;;;7370735;19;802;-65
2023/04/29 14:23:56;;;;;;;;;;;;;;;;;;7368586;19;1262;-64
2023/04/29 14:26:25;;;;;;;;;;;;;;;;;;7368940;19;1853;-65
2023/04/29 14:28:56;;;;;;;;;;;;;;;;;;7369974;19;880;-65
2023/04/29 14:31:24;;;;;;;;;;;;;;;;;;7370375;19;728;-64
2023/04/29 14:33:52;;;;;;;;;;;;;;;;;;7368347;19;1320;-64
2023/04/29 14:36:21;;;;;;;;;;;;;;;;;;7370326;19;873;-65
2023/04/29 14:38:49;;;;;;;;;;;;;;;;;;7369683;19;831;-66
2023/04/29 14:41:17;;;;;;;;;;;;;;;;;;7370322;19;775;-65
2023/04/29 14:43:45;;;;;;;;;;;;;;;;;;7368786;19;1350;-66
2023/04/29 14:46:13;;;;;;;;;;;;;;;;;;7369432;19;1838;-66
2023/04/29 14:48:41;;;;;;;;;;;;;;;;;;7369756;19;853;-66
2023/04/29 14:51:10;;;;;;;;;;;;;;;;;;7368621;19;800;-66
2023/04/29 14:53:38;;;;;;;;;;;;;;;;;;7367815;19;1351;-66
2023/04/29 14:56:06;;;;;;;;;;;;;;;;;;7370239;19;867;-65
2023/04/29 14:58:34;;;;;;;;;;;;;;;;;;7369219;19;811;-66
2023/04/29 15:01:02;;;;;;;;;;;;;;;;;;7370028;19;867;-66
2023/04/29 15:03:31;;;;;;;;;;;;;;;;;;7367618;19;1223;-66
2023/04/29 15:05:59;;;;;;;;;;;;;;;;;;7369232;19;1853;-66
2023/04/29 15:08:27;;;;;;;;;;;;;;;;;;7369066;19;783;-67
2023/04/29 15:10:55;;;;;;;;;;;;;;;;;;7369815;19;842;-66
2023/04/29 15:13:23;;;;;;;;;;;;;;;;;;7367944;19;1355;-66
2023/04/29 15:15:52;;;;;;;;;;;;;;;;;;7369769;19;827;-65
2023/04/29 15:18:22;;;;;;;;;;;;;;;;;;7369440;19;846;-66
2023/04/29 15:20:50;;;;;;;;;;;;;;;;;;7370173;19;764;-66
2023/04/29 15:23:18;;;;;;;;;;;;;;;;;;7368208;19;1376;-66
2023/04/29 15:25:46;;;;;;;;;;;;;;;;;;7369231;19;1845;-66
2023/04/29 15:28:15;;;;;;;;;;;;;;;;;;7369027;19;735;-66
2023/04/29 15:30:43;;;;;;;;;;;;;;;;;;7369245;19;832;-66
2023/04/29 15:33:11;;;;;;;;;;;;;;;;;;7367894;19;1342;-66
2023/04/29 15:35:39;;;;;;;;;;;;;;;;;;7368677;19;843;-67
2023/04/29 15:38:07;;;;;;;;;;;;;;;;;;7367283;19;837;-65
2023/04/29 15:40:36;;;;;;;;;;;;;;;;;;7368665;19;921;-66
2023/04/29 15:43:04;;;;;;;;;;;;;;;;;;7367278;19;1285;-64
2023/04/29 15:45:32;;;;;;;;;;;;;;;;;;7368179;19;856;-65
2023/04/29 15:48:00;;;;;;;;;;;;;;;;;;7365622;19;1838;-64
2023/04/29 15:50:28;;;;;;;;;;;;;;;;;;7367783;19;819;-65
2023/04/29 15:52:57;;;;;;;;;;;;;;;;;;7366816;19;1343;-64
2023/04/29 15:55:25;;;;;;;;;;;;;;;;;;7368350;19;859;-65
2023/04/29 15:57:54;;;;;;;;;;;;;;;;;;7367928;19;822;-65
2023/04/29 16:00:22;;;;;;;;;;;;;;;;;;7368019;19;812;-65
2023/04/29 16:02:50;;;;;;;;;;;;;;;;;;7366490;19;1273;-66
2023/04/29 16:05:18;;;;;;;;;;;;;;;;;;7367749;19;784;-65
2023/04/29 16:07:46;;;;;;;;;;;;;;;;;;7365054;19;1849;-65
2023/04/29 16:10:14;;;;;;;;;;;;;;;;;;7367806;19;821;-65
2023/04/29 16:12:42;;;;;;;;;;;;;;;;;;7367272;19;1353;-65
2023/04/29 16:15:11;;;;;;;;;;;;;;;;;;7367595;19;791;-65
2023/04/29 16:17:39;;;;;;;;;;;;;;;;;;7367205;19;833;-66
2023/04/29 16:20:07;;;;;;;;;;;;;;;;;;7367505;19;818;-65
2023/04/29 16:22:35;;;;;;;;;;;;;;;;;;7367349;19;1363;-65
2023/04/29 16:25:04;;;;;;;;;;;;;;;;;;7367837;19;879;-65
2023/04/29 16:27:32;;;;;;;;;;;;;;;;;;7366072;19;1850;-64
2023/04/29 16:30:00;;;;;;;;;;;;;;;;;;7368371;19;722;-64
2023/04/29 16:32:28;;;;;;;;;;;;;;;;;;7366731;19;1246;-65
2023/04/29 16:34:56;;;;;;;;;;;;;;;;;;7368161;19;881;-65
2023/04/29 16:37:25;;;;;;;;;;;;;;;;;;7368453;19;826;-63
2023/04/29 16:39:53;;;;;;;;;;;;;;;;;;7365882;19;785;-64
2023/04/29 16:42:21;;;;;;;;;;;;;;;;;;7366419;19;1361;-65
2023/04/29 16:44:49;;;;;;;;;;;;;;;;;;7366759;19;838;-66
2023/04/29 16:47:17;;;;;;;;;;;;;;;;;;7366540;19;1833;-65
2023/04/29 16:49:46;;;;;;;;;;;;;;;;;;7366476;19;883;-66
2023/04/29 16:52:14;;;;;;;;;;;;;;;;;;7366966;19;1349;-66
2023/04/29 16:54:42;;;;;;;;;;;;;;;;;;7366346;19;778;-65
2023/04/29 16:57:10;;;;;;;;;;;;;;;;;;7366727;19;858;-66
2023/04/29 16:59:38;;;;;;;;;;;;;;;;;;7365956;19;845;-65
2023/04/29 17:02:07;;;;;;;;;;;;;;;;;;7366039;19;1322;-65
2023/04/29 17:04:35;;;;;;;;;;;;;;;;;;7366120;19;846;-65
2023/04/29 17:07:03;;;;;;;;;;;;;;;;;;7365125;19;1845;-65
2023/04/29 17:09:31;;;;;;;;;;;;;;;;;;7365284;19;843;-65
2023/04/29 17:12:02;;;;;;;;;;;;;;;;;;7366054;19;1332;-66
2023/04/29 17:14:30;;;;;;;;;;;;;;;;;;7364808;19;783;-65
2023/04/29 17:16:58;;;;;;;;;;;;;;;;;;7366111;19;736;-65
2023/04/29 17:19:27;;;;;;;;;;;;;;;;;;7365202;19;825;-65
2023/04/29 17:21:55;;;;;;;;;;;;;;;;;;7363267;19;1275;-65
2023/04/29 17:24:24;;;;;;;;;;;;;;;;;;7366180;19;834;-65
2023/04/29 17:26:52;;;;;;;;;;;;;;;;;;7365605;19;1862;-66